createdAt,value
2022-10-09T09:49:30.165Z,8.02
2022-10-09T09:52:36.713Z,7.87
2022-10-09T09:55:38.443Z,8.33
2022-10-09T10:01:30.682Z,7.90
2022-10-09T10:04:34.038Z,8.02
2022-10-09T10:07:38.145Z,11.30
2022-10-09T10:10:45.454Z,8.57
2022-10-09T10:13:51.953Z,8.07
2022-10-09T10:16:56.974Z,8.95
2022-10-09T10:27:42.928Z,10.32
2022-10-09T10:30:46.309Z,8.98
2022-10-09T10:33:52.420Z,7.95
2022-10-09T10:37:15.003Z,7.60
2022-10-09T10:40:53.437Z,8.43
2022-10-09T10:44:26.135Z,8.43
2022-10-09T10:47:34.465Z,8.65
2022-10-09T10:50:46.269Z,8.18
2022-10-09T10:54:03.556Z,6.80
2022-10-09T10:57:17.423Z,7.78
2022-10-09T11:00:19.583Z,8.85
2022-10-09T11:03:44.105Z,7.07
2022-10-09T11:07:02.968Z,8.90
2022-10-09T11:10:25.442Z,7.10
2022-10-09T11:13:35.210Z,7.90
2022-10-09T11:16:55.392Z,6.57
2022-10-09T11:20:34.699Z,7.87
2022-10-09T11:24:01.282Z,7.57
2022-10-09T11:27:14.054Z,7.27
2022-10-09T11:30:20.765Z,9.40
2022-10-09T11:33:28.685Z,6.82
2022-10-09T11:36:40.875Z,11.20
2022-10-09T11:39:43.423Z,8.80
2022-10-09T11:42:59.335Z,6.93
2022-10-09T11:46:07.486Z,7.62
2022-10-09T11:49:28.480Z,7.40
2022-10-09T11:52:55.171Z,8.50
2022-10-09T11:56:09.141Z,9.38
2022-10-09T11:59:22.411Z,7.07
2022-10-09T12:02:27.954Z,7.37
2022-10-09T12:05:34.578Z,8.43
2022-10-09T12:08:38.509Z,7.57
2022-10-09T12:11:41.113Z,7.90
2022-10-09T12:14:45.524Z,6.33
2022-10-09T12:17:49.963Z,7.03
2022-10-09T12:20:54.350Z,6.90
2022-10-09T12:23:57.185Z,7.05
2022-10-09T12:27:03.355Z,6.40
2022-10-09T12:30:18.211Z,8.67
2022-10-09T12:33:43.707Z,7.25
2022-10-09T12:36:45.847Z,7.25
2022-10-09T12:39:49.694Z,7.05
2022-10-09T12:42:54.111Z,7.50
2022-10-09T12:45:56.487Z,8.03
2022-10-09T12:49:00.419Z,6.37
2022-10-09T12:52:02.899Z,7.50
2022-10-09T12:55:16.691Z,8.00
2022-10-09T12:58:20.332Z,6.15
2022-10-09T13:01:22.752Z,7.43
2022-10-09T13:04:31.155Z,7.70
2022-10-09T13:07:33.240Z,7.40
2022-10-09T13:10:36.127Z,7.85
2022-10-09T13:13:39.276Z,8.00
2022-10-09T13:16:44.115Z,7.87
2022-10-09T13:19:52.369Z,7.18
2022-10-09T13:22:56.961Z,7.53
2022-10-09T13:26:03.503Z,6.68
2022-10-09T13:29:07.338Z,6.40
2022-10-09T13:32:17.819Z,8.03
2022-10-09T13:35:19.852Z,7.28
2022-10-09T13:38:23.660Z,8.30
2022-10-09T13:41:25.748Z,6.93
2022-10-09T13:44:27.786Z,6.90
2022-10-09T13:47:29.680Z,7.00
2022-10-09T13:50:31.857Z,5.85
2022-10-09T13:53:34.374Z,7.18
2022-10-09T13:56:36.507Z,8.85
2022-10-09T13:59:39.568Z,6.43
2022-10-09T14:02:41.631Z,6.50
2022-10-09T14:05:44.577Z,6.78
2022-10-09T14:08:46.512Z,6.03
2022-10-09T14:11:49.144Z,6.95
2022-10-09T14:14:53.215Z,7.18
2022-10-09T14:17:55.415Z,8.07
2022-10-09T14:20:57.365Z,6.78
2022-10-09T14:24:01.532Z,10.85
2022-10-09T14:27:03.780Z,7.80
2022-10-09T14:30:06.237Z,7.07
2022-10-09T14:33:08.546Z,7.90
2022-10-09T14:36:18.721Z,8.05
2022-10-09T14:39:20.789Z,8.82
2022-10-09T14:42:23.143Z,8.45
2022-10-09T14:45:25.187Z,8.07
2022-10-09T14:48:27.165Z,6.73
2022-10-09T14:51:32.536Z,6.82
2022-10-09T14:54:36.781Z,8.02
2022-10-09T14:57:38.799Z,7.12
2022-10-09T15:00:46.967Z,7.07
2022-10-09T15:03:49.699Z,7.47
2022-10-09T15:06:51.763Z,5.47
2022-10-09T15:09:55.026Z,6.53
2022-10-09T15:12:56.949Z,6.62
2022-10-09T15:16:00.559Z,7.68
2022-10-09T15:19:04.668Z,6.30
2022-10-09T15:22:06.783Z,7.65
2022-10-09T15:25:09.148Z,7.43
2022-10-09T15:28:11.358Z,6.82
2022-10-09T15:31:27.057Z,8.18
2022-10-09T15:34:29.490Z,8.90
2022-10-09T15:37:31.487Z,7.55
2022-10-09T15:40:55.817Z,7.72
2022-10-09T15:44:00.857Z,7.28
2022-10-09T15:47:02.835Z,8.48
2022-10-09T15:50:05.527Z,6.53
2022-10-09T15:53:14.304Z,8.23
2022-10-09T15:56:22.514Z,6.90
2022-10-09T15:59:25.851Z,8.65
2022-10-09T16:02:27.772Z,7.55
2022-10-09T16:05:30.139Z,7.00
2022-10-09T16:08:32.410Z,7.10
2022-10-09T16:11:34.795Z,7.00
2022-10-09T16:14:38.376Z,7.87
2022-10-09T16:17:40.293Z,8.60
2022-10-09T16:20:42.809Z,7.60
2022-10-09T16:23:45.848Z,8.88
2022-10-09T16:26:47.832Z,10.77
2022-10-09T16:29:49.788Z,8.30
2022-10-09T16:32:52.541Z,8.70
2022-10-09T16:35:55.020Z,7.67
2022-10-09T16:38:58.245Z,10.18
2022-10-09T16:42:03.870Z,15.52
2022-10-09T16:45:06.383Z,11.82
2022-10-09T16:48:08.549Z,11.60
2022-10-09T16:51:12.813Z,10.00
2022-10-09T16:54:14.758Z,9.05
2022-10-09T16:57:17.917Z,12.43
2022-10-09T17:00:20.161Z,10.75
2022-10-09T17:03:22.334Z,9.30
2022-10-09T17:06:24.449Z,9.53
2022-10-09T17:09:26.583Z,10.38
2022-10-09T17:12:28.664Z,10.27
2022-10-09T17:15:31.298Z,9.55
2022-10-09T17:18:33.946Z,8.10
2022-10-09T17:21:36.616Z,9.40
2022-10-09T17:24:38.781Z,8.70
2022-10-09T17:27:40.788Z,8.93
2022-10-09T17:30:43.382Z,9.35
2022-10-09T17:33:48.357Z,10.63
2022-10-09T17:36:50.453Z,10.20
2022-10-09T17:39:52.986Z,12.55
2022-10-09T17:42:55.006Z,12.37
2022-10-09T17:45:57.017Z,9.60
2022-10-09T17:49:00.055Z,9.88
2022-10-09T17:52:02.193Z,14.37
2022-10-09T17:55:04.566Z,12.98
2022-10-09T17:58:06.931Z,12.35
2022-10-09T18:01:10.573Z,12.93
2022-10-09T18:04:16.003Z,14.35
2022-10-09T18:07:20.079Z,13.10
2022-10-09T18:10:22.927Z,15.60
2022-10-09T18:13:25.619Z,12.57
2022-10-09T18:16:35.766Z,13.60
2022-10-09T18:19:39.087Z,13.30
2022-10-09T18:22:41.677Z,14.33
2022-10-09T18:25:45.379Z,13.05
2022-10-09T18:28:48.598Z,13.32
2022-10-09T18:31:56.113Z,17.08
2022-10-09T18:34:59.405Z,15.70
2022-10-09T18:38:02.009Z,14.43
2022-10-09T18:41:04.740Z,15.13
2022-10-09T18:44:12.915Z,14.85
2022-10-09T18:47:19.059Z,13.98
2022-10-09T18:50:22.791Z,14.77
2022-10-09T18:53:27.160Z,18.70
2022-10-09T18:56:32.792Z,13.38
2022-10-09T18:59:38.425Z,14.98
2022-10-09T19:02:41.089Z,14.57
2022-10-09T19:05:45.181Z,15.75
2022-10-09T19:08:48.084Z,13.53
2022-10-09T19:11:52.636Z,14.30
2022-10-09T19:14:54.857Z,16.62
2022-10-09T19:17:56.919Z,12.68
2022-10-09T19:20:59.360Z,12.87
2022-10-09T19:24:04.572Z,11.80
2022-10-09T19:27:06.748Z,13.50
2022-10-09T19:30:09.633Z,12.80
2022-10-09T19:33:12.327Z,11.68
2022-10-09T19:36:14.769Z,15.97
2022-10-09T19:39:19.093Z,12.40
2022-10-09T19:42:21.402Z,13.25
2022-10-09T19:45:24.157Z,13.70
2022-10-09T19:48:27.328Z,13.05
2022-10-09T19:51:29.396Z,12.53
2022-10-09T19:54:35.606Z,13.17
2022-10-09T19:57:37.720Z,15.82
2022-10-09T20:00:43.741Z,14.07
2022-10-09T20:03:47.263Z,16.55
2022-10-09T20:06:49.701Z,17.40
2022-10-09T20:09:52.029Z,14.87
2022-10-09T20:12:54.744Z,15.85
2022-10-09T20:15:57.159Z,20.00
2022-10-09T20:19:01.141Z,17.50
2022-10-09T20:22:03.541Z,17.30
2022-10-09T20:25:06.292Z,21.27
2022-10-09T20:28:08.372Z,19.27
2022-10-09T20:31:20.742Z,19.92
2022-10-09T20:34:23.667Z,16.08
2022-10-09T20:37:25.920Z,17.60
2022-10-09T20:40:27.952Z,17.43
2022-10-09T20:43:29.880Z,17.70
2022-10-09T20:46:34.098Z,17.55
2022-10-09T20:49:36.316Z,16.23
2022-10-09T20:52:38.662Z,17.57
2022-10-09T20:55:40.624Z,17.47
2022-10-09T20:58:42.962Z,20.65
2022-10-09T21:01:45.257Z,15.20
2022-10-09T21:04:47.393Z,15.32
2022-10-09T21:07:49.576Z,17.50
2022-10-09T21:10:51.583Z,16.20
2022-10-09T21:13:54.066Z,16.92
2022-10-09T21:16:56.108Z,16.62
2022-10-09T21:19:58.679Z,17.25
2022-10-09T21:23:00.668Z,14.27
2022-10-09T21:26:03.135Z,15.37
2022-10-09T21:29:05.977Z,17.55
2022-10-09T21:32:08.006Z,17.00
2022-10-09T21:35:09.932Z,16.20
2022-10-09T21:38:14.398Z,13.93
2022-10-09T21:41:16.419Z,15.17
2022-10-09T21:44:18.361Z,14.38
2022-10-09T21:47:20.369Z,17.48
2022-10-09T21:50:22.351Z,17.02
2022-10-09T21:53:24.381Z,19.50
2022-10-09T21:56:26.471Z,14.73
2022-10-09T21:59:28.751Z,14.95
2022-10-09T22:02:30.750Z,11.45
2022-10-09T22:05:32.696Z,13.77
2022-10-09T22:08:34.706Z,11.73
2022-10-09T22:11:36.760Z,13.37
2022-10-09T22:14:38.792Z,11.18
2022-10-09T22:17:40.700Z,11.48
2022-10-09T22:20:46.466Z,12.90
2022-10-09T22:23:49.973Z,11.13
2022-10-09T22:26:51.962Z,13.13
2022-10-09T22:29:53.981Z,13.25
2022-10-09T22:32:56.224Z,9.57
2022-10-09T22:36:29.156Z,12.40
2022-10-09T22:39:31.489Z,12.27
2022-10-09T22:42:33.640Z,11.40
2022-10-09T22:45:38.843Z,12.52
2022-10-09T22:48:41.600Z,11.02
2022-10-09T22:51:44.288Z,13.00
2022-10-09T22:54:46.257Z,10.60
2022-10-09T22:57:48.233Z,10.67
2022-10-09T23:00:50.794Z,14.13
2022-10-09T23:03:52.694Z,10.25
2022-10-09T23:06:59.673Z,11.00
2022-10-09T23:10:02.491Z,12.67
2022-10-09T23:13:05.037Z,12.03
2022-10-09T23:16:10.137Z,11.38
2022-10-09T23:19:12.856Z,10.38
2022-10-09T23:22:14.805Z,11.00
2022-10-09T23:25:19.172Z,10.70
2022-10-09T23:28:21.971Z,12.80
2022-10-09T23:31:25.317Z,9.20
2022-10-09T23:34:27.415Z,13.50
2022-10-09T23:37:29.313Z,12.55
2022-10-09T23:40:32.073Z,12.80
2022-10-09T23:43:36.516Z,10.13
2022-10-09T23:46:38.583Z,10.93
2022-10-09T23:49:40.629Z,10.55
2022-10-09T23:52:42.583Z,10.70
2022-10-09T23:55:45.206Z,9.80
2022-10-09T23:58:47.429Z,12.73
